Time;durP1;ratioP1;P1;durP2;ratioP2;P2;SDS_P1;SDS_P2;PMS_P1;PMS_P2;Temp;Humidity;BMP_temperature;BMP_pressure;BME280_temperature;BME280_humidity;BME280_pressure;Samples;Min_cycle;Max_cycle;Signal;HPM_P1;HPM_P2
2022/03/25 00:00:10;;;;;;;9.52;8.45;;;11.40;75.00;;;;;;5061365;28;20654;-76
2022/03/25 00:02:38;;;;;;;9.75;8.63;;;11.40;75.00;;;;;;5066844;28;20313;-75
2022/03/25 00:05:07;;;;;;;10.38;9.18;;;11.40;74.90;;;;;;5060212;28;20260;-75
2022/03/25 00:07:34;;;;;;;9.65;8.45;;;11.30;75.10;;;;;;5065839;28;20230;-75
2022/03/25 00:10:02;;;;;;;9.70;8.77;;;11.30;75.40;;;;;;5068845;28;20194;-76
2022/03/25 00:12:29;;;;;;;9.93;8.93;;;11.30;75.50;;;;;;5063950;28;20217;-76
2022/03/25 00:14:56;;;;;;;9.90;8.90;;;11.30;75.70;;;;;;5059802;28;20195;-76
2022/03/25 00:17:23;;;;;;;9.70;8.70;;;11.20;75.60;;;;;;5066312;28;20221;-76
2022/03/25 00:19:51;;;;;;;9.00;8.13;;;11.20;75.50;;;;;;5067558;28;20236;-76
2022/03/25 00:22:19;;;;;;;8.60;7.80;;;11.10;76.20;;;;;;5056726;28;20318;-75
2022/03/25 00:24:46;;;;;;;9.23;8.23;;;11.10;76.00;;;;;;5059855;28;20195;-74
2022/03/25 00:27:14;;;;;;;8.88;7.97;;;11.10;76.00;;;;;;5061767;28;20611;-74
2022/03/25 00:29:42;;;;;;;8.07;7.28;;;11.00;76.00;;;;;;5059778;28;20199;-75
2022/03/25 00:32:09;;;;;;;7.85;7.07;;;11.00;76.40;;;;;;5058293;28;20254;-75
2022/03/25 00:34:36;;;;;;;8.07;7.28;;;11.00;76.60;;;;;;5059273;28;20662;-76
2022/03/25 00:37:05;;;;;;;8.93;8.02;;;11.00;76.80;;;;;;5057835;28;20225;-74
2022/03/25 00:39:32;;;;;;;8.48;7.57;;;10.90;76.80;;;;;;5059474;28;20202;-75
2022/03/25 00:41:59;;;;;;;8.23;7.35;;;10.90;76.90;;;;;;5061162;28;20225;-75
2022/03/25 00:44:26;;;;;;;8.43;7.45;;;10.80;77.20;;;;;;5060133;28;20205;-75
2022/03/25 00:46:53;;;;;;;8.23;7.22;;;10.80;77.20;;;;;;5062939;28;20219;-74
2022/03/25 00:49:20;;;;;;;9.70;8.70;;;10.80;76.90;;;;;;5058368;28;20222;-75
2022/03/25 00:51:48;;;;;;;9.57;8.57;;;10.70;77.20;;;;;;5067784;28;20242;-75
2022/03/25 00:54:16;;;;;;;9.50;8.60;;;10.70;77.20;;;;;;5061859;28;20199;-76
2022/03/25 00:56:43;;;;;;;8.57;7.70;;;10.60;77.10;;;;;;5062304;28;20214;-76
2022/03/25 00:59:10;;;;;;;8.68;7.88;;;10.60;76.80;;;;;;5060670;28;20694;-75
2022/03/25 01:01:38;;;;;;;9.18;8.27;;;10.50;76.80;;;;;;5061156;28;20573;-75
2022/03/25 01:04:06;;;;;;;8.50;7.60;;;10.50;76.60;;;;;;5066420;28;20666;-76
2022/03/25 01:06:33;;;;;;;8.48;7.57;;;10.50;77.00;;;;;;5060423;28;20198;-75
2022/03/25 01:09:00;;;;;;;8.90;8.10;;;10.40;77.00;;;;;;5065620;28;20225;-74
2022/03/25 01:11:28;;;;;;;8.13;7.32;;;10.40;77.00;;;;;;5065541;28;20194;-75
2022/03/25 01:13:56;;;;;;;7.82;7.13;;;10.30;77.10;;;;;;5064145;28;20218;-75
2022/03/25 01:16:23;;;;;;;7.80;7.00;;;10.30;77.10;;;;;;5058930;28;20227;-75
2022/03/25 01:18:50;;;;;;;7.80;7.00;;;10.30;77.30;;;;;;5064288;28;20341;-75
2022/03/25 01:21:17;;;;;;;7.78;7.07;;;10.20;77.50;;;;;;5065838;28;20198;-76
2022/03/25 01:23:45;;;;;;;8.02;7.22;;;10.20;77.80;;;;;;5061698;28;20735;-75
2022/03/25 01:26:12;;;;;;;8.82;7.90;;;10.20;77.90;;;;;;5062632;28;20191;-74
2022/03/25 01:28:41;;;;;;;8.40;7.47;;;10.20;78.00;;;;;;5061012;28;20218;-75
2022/03/25 01:31:09;;;;;;;7.80;7.00;;;10.10;77.80;;;;;;5060386;28;20190;-76
2022/03/25 01:33:37;;;;;;;8.38;7.57;;;10.10;78.10;;;;;;5057546;28;20222;-73
2022/03/25 01:36:05;;;;;;;7.75;7.05;;;10.10;78.40;;;;;;5059780;28;20222;-76
2022/03/25 01:38:32;;;;;;;8.05;7.25;;;10.00;78.20;;;;;;5065026;28;20220;-76
2022/03/25 01:41:00;;;;;;;7.97;7.22;;;9.90;78.30;;;;;;5065202;28;20586;-76
2022/03/25 01:43:27;;;;;;;9.05;8.13;;;9.90;78.80;;;;;;5062139;28;20228;-76
2022/03/25 01:45:56;;;;;;;8.75;7.85;;;9.90;79.00;;;;;;5062190;28;20194;-75
2022/03/25 01:48:23;;;;;;;8.18;7.38;;;9.80;79.10;;;;;;5061669;28;20225;-75
2022/03/25 01:50:51;;;;;;;8.30;7.57;;;9.80;79.00;;;;;;5065052;28;20201;-75
2022/03/25 01:53:21;;;;;;;9.48;7.32;;;9.80;79.00;;;;;;5057209;28;20702;-76
2022/03/25 01:55:51;;;;;;;8.10;7.30;;;9.80;78.80;;;;;;5065381;28;20218;-75
2022/03/25 01:58:19;;;;;;;8.10;7.30;;;9.70;78.70;;;;;;5067409;28;20218;-75
2022/03/25 02:00:46;;;;;;;7.80;7.07;;;9.70;78.70;;;;;;5065178;28;20221;-75
2022/03/25 02:03:16;;;;;;;7.53;6.82;;;9.60;78.70;;;;;;5064357;28;20569;-75
2022/03/25 02:05:43;;;;;;;7.75;6.95;;;9.60;79.00;;;;;;5067877;28;20217;-76
2022/03/25 02:08:11;;;;;;;7.30;6.60;;;9.60;78.90;;;;;;5066073;28;20287;-75
2022/03/25 02:10:39;;;;;;;7.93;6.90;;;9.60;79.00;;;;;;5064377;28;20232;-75
2022/03/25 02:13:08;;;;;;;7.35;6.65;;;9.60;79.20;;;;;;5067627;28;20310;-75
2022/03/25 02:15:37;;;;;;;7.82;7.10;;;9.60;79.50;;;;;;5066323;28;20244;-75
2022/03/25 02:18:06;;;;;;;7.95;7.15;;;9.60;79.50;;;;;;5062203;28;20218;-74
2022/03/25 02:20:35;;;;;;;8.30;7.50;;;9.50;79.50;;;;;;5062913;28;20208;-76
2022/03/25 02:23:04;;;;;;;7.45;6.75;;;9.40;79.30;;;;;;5059683;28;20268;-76
2022/03/25 02:25:32;;;;;;;7.72;6.78;;;9.40;79.10;;;;;;5067170;28;20600;-75
2022/03/25 02:27:59;;;;;;;8.27;6.40;;;9.40;79.40;;;;;;5062796;28;20296;-76
2022/03/25 02:30:27;;;;;;;7.85;7.05;;;9.30;79.60;;;;;;5063734;28;20658;-75
2022/03/25 02:32:57;;;;;;;7.82;7.00;;;9.20;80.00;;;;;;5067769;28;20637;-76
2022/03/25 02:35:37;;;;;;;7.57;6.88;;;9.20;80.60;;;;;;5065144;28;20202;-76
2022/03/25 02:38:06;;;;;;;8.18;7.38;;;9.10;80.80;;;;;;5066724;28;20766;-75
2022/03/25 02:40:33;;;;;;;8.82;7.82;;;9.10;80.50;;;;;;5070214;28;20234;-75
2022/03/25 02:43:01;;;;;;;8.13;7.25;;;9.10;80.50;;;;;;5070073;28;20218;-75
2022/03/25 02:45:28;;;;;;;8.00;7.20;;;9.00;80.70;;;;;;5065661;28;20245;-75
2022/03/25 02:47:55;;;;;;;8.50;7.63;;;9.00;80.70;;;;;;5064250;28;20218;-75
2022/03/25 02:50:22;;;;;;;7.75;6.95;;;9.00;80.60;;;;;;5066935;28;20203;-75
2022/03/25 02:52:49;;;;;;;8.40;7.60;;;9.00;80.60;;;;;;5064368;28;20316;-75
2022/03/25 02:55:17;;;;;;;8.52;7.25;;;9.00;80.80;;;;;;5059653;28;20267;-75
2022/03/25 02:57:44;;;;;;;7.57;6.88;;;9.00;80.80;;;;;;5060008;28;20310;-75
2022/03/25 03:00:12;;;;;;;7.43;6.53;;;9.00;80.80;;;;;;5070816;28;20198;-75
2022/03/25 03:02:39;;;;;;;8.43;7.63;;;9.00;81.30;;;;;;5063335;28;20218;-75
2022/03/25 03:05:08;;;;;;;8.80;7.32;;;9.00;81.20;;;;;;5066219;28;20263;-75
2022/03/25 03:07:36;;;;;;;7.40;6.63;;;9.00;80.90;;;;;;5067480;28;20214;-75
2022/03/25 03:10:04;;;;;;;8.07;6.85;;;9.00;80.50;;;;;;5067208;28;20281;-76
2022/03/25 03:12:33;;;;;;;7.47;6.63;;;9.00;80.80;;;;;;5066122;28;20267;-75
2022/03/25 03:15:00;;;;;;;8.23;7.10;;;8.90;80.80;;;;;;5068910;28;20206;-75
2022/03/25 03:17:27;;;;;;;15.70;10.88;;;8.80;81.80;;;;;;5069061;28;20221;-75
2022/03/25 03:19:54;;;;;;;18.95;11.85;;;8.80;81.30;;;;;;5065662;28;20606;-75
2022/03/25 03:22:22;;;;;;;12.88;10.48;;;8.70;81.90;;;;;;5064642;28;20319;-75
2022/03/25 03:24:49;;;;;;;11.85;9.50;;;8.60;81.90;;;;;;5059926;28;20344;-75
2022/03/25 03:27:16;;;;;;;10.68;9.02;;;8.60;82.20;;;;;;5059457;28;20218;-75
2022/03/25 03:29:44;;;;;;;11.15;8.30;;;8.50;82.00;;;;;;5068802;28;20203;-75
2022/03/25 03:32:11;;;;;;;8.05;7.25;;;8.50;82.40;;;;;;5064536;28;20286;-75
2022/03/25 03:34:39;;;;;;;8.23;7.10;;;8.50;81.50;;;;;;5063549;28;20506;-75
2022/03/25 03:37:06;;;;;;;8.85;7.47;;;8.50;81.60;;;;;;5067126;28;20225;-74
2022/03/25 03:39:33;;;;;;;7.95;6.50;;;8.50;82.00;;;;;;5064217;28;20311;-75
2022/03/25 03:42:02;;;;;;;7.85;7.05;;;8.50;82.00;;;;;;5063660;28;20206;-76
2022/03/25 03:44:29;;;;;;;7.78;7.00;;;8.50;82.20;;;;;;5062545;28;20722;-76
2022/03/25 03:46:58;;;;;;;6.70;6.03;;;8.40;82.20;;;;;;5065614;28;20190;-75
2022/03/25 03:49:25;;;;;;;7.53;6.72;;;8.40;82.10;;;;;;5060552;28;20218;-75
2022/03/25 03:51:52;;;;;;;7.22;6.53;;;8.40;82.20;;;;;;5064949;28;20205;-75
2022/03/25 03:54:19;;;;;;;9.52;6.47;;;8.40;82.30;;;;;;5061877;28;20682;-76
2022/03/25 03:56:46;;;;;;;7.63;6.90;;;8.40;82.40;;;;;;5060779;28;20798;-75
2022/03/25 03:59:13;;;;;;;7.65;6.70;;;8.30;82.50;;;;;;5066351;28;20221;-74
2022/03/25 04:01:40;;;;;;;7.03;6.32;;;8.30;83.10;;;;;;5059876;28;20195;-75
2022/03/25 04:04:08;;;;;;;7.53;6.70;;;8.30;83.30;;;;;;5061004;28;20310;-75
2022/03/25 04:06:35;;;;;;;7.50;6.70;;;8.20;83.20;;;;;;5064210;28;20240;-75
2022/03/25 04:09:02;;;;;;;7.47;6.60;;;8.20;83.50;;;;;;5063479;28;20218;-75
2022/03/25 04:11:29;;;;;;;7.10;6.40;;;8.20;83.70;;;;;;5066933;28;20195;-76
2022/03/25 04:13:56;;;;;;;7.70;6.32;;;8.20;83.80;;;;;;5061287;28;20219;-75
2022/03/25 04:16:23;;;;;;;7.47;5.80;;;8.10;83.60;;;;;;5067479;28;20218;-75
2022/03/25 04:18:50;;;;;;;6.78;6.10;;;8.20;83.60;;;;;;5061148;28;20298;-76
2022/03/25 04:21:19;;;;;;;7.05;6.40;;;8.20;83.80;;;;;;5065968;28;20205;-76
2022/03/25 04:23:46;;;;;;;6.80;6.18;;;8.20;83.60;;;;;;5061734;28;20213;-75
2022/03/25 04:26:13;;;;;;;6.03;5.43;;;8.10;83.60;;;;;;5066437;28;20199;-74
2022/03/25 04:28:40;;;;;;;6.70;6.00;;;8.10;83.70;;;;;;5061339;28;20222;-75
2022/03/25 04:31:07;;;;;;;6.65;6.03;;;8.10;83.80;;;;;;5063073;28;20857;-75
2022/03/25 04:33:36;;;;;;;5.93;5.40;;;8.00;83.40;;;;;;5060332;28;20714;-75
2022/03/25 04:36:03;;;;;;;6.38;5.78;;;8.00;83.60;;;;;;5058772;28;20332;-75
2022/03/25 04:38:32;;;;;;;5.70;5.15;;;8.00;83.60;;;;;;5060895;28;20230;-75
2022/03/25 04:40:59;;;;;;;6.10;5.47;;;8.00;83.70;;;;;;5062470;28;20207;-75
2022/03/25 04:43:26;;;;;;;6.50;6.00;;;8.00;83.90;;;;;;5064065;28;20218;-76
2022/03/25 04:45:53;;;;;;;6.47;5.88;;;8.00;83.90;;;;;;5063633;28;20199;-75
2022/03/25 04:48:20;;;;;;;6.05;5.45;;;7.90;84.00;;;;;;5064290;28;20317;-75
2022/03/25 04:50:47;;;;;;;6.30;5.70;;;7.90;83.80;;;;;;5067020;28;20222;-75
2022/03/25 04:53:14;;;;;;;5.47;4.97;;;7.90;84.00;;;;;;5058458;28;20271;-73
2022/03/25 04:55:42;;;;;;;5.57;5.07;;;7.90;84.30;;;;;;5060143;28;20203;-75
2022/03/25 04:58:10;;;;;;;6.32;5.82;;;7.80;84.00;;;;;;5058519;28;20300;-75
2022/03/25 05:00:38;;;;;;;5.70;5.20;;;7.80;83.90;;;;;;5064251;28;20194;-75
2022/03/25 05:03:05;;;;;;;6.18;5.57;;;7.80;84.20;;;;;;5064063;28;20593;-76
2022/03/25 05:05:32;;;;;;;6.22;5.68;;;7.90;84.30;;;;;;5063862;28;20284;-75
2022/03/25 05:07:59;;;;;;;9.13;5.97;;;7.90;84.40;;;;;;5061933;28;20325;-75
2022/03/25 05:10:27;;;;;;;6.38;5.78;;;7.90;84.50;;;;;;5060968;28;20199;-75
2022/03/25 05:12:56;;;;;;;6.65;5.78;;;7.90;84.80;;;;;;5062085;28;20218;-75
2022/03/25 05:15:23;;;;;;;6.55;5.78;;;7.90;84.80;;;;;;5064265;28;20194;-76
2022/03/25 05:17:52;;;;;;;8.48;5.97;;;7.90;84.70;;;;;;5062633;28;20728;-75
2022/03/25 05:20:21;;;;;;;6.78;6.13;;;7.90;84.90;;;;;;5065883;28;20232;-75
2022/03/25 05:22:49;;;;;;;6.65;6.05;;;7.90;84.80;;;;;;5064633;28;20218;-76
2022/03/25 05:25:17;;;;;;;6.70;6.00;;;7.90;84.60;;;;;;5064244;28;20919;-74
2022/03/25 05:27:46;;;;;;;7.18;6.47;;;7.90;84.70;;;;;;5059712;28;20222;-75
2022/03/25 05:30:14;;;;;;;7.50;6.80;;;7.90;84.90;;;;;;5062682;28;20202;-73
2022/03/25 05:32:42;;;;;;;7.65;6.93;;;7.90;84.70;;;;;;5061581;28;20210;-75
2022/03/25 05:35:10;;;;;;;8.80;7.30;;;7.90;84.80;;;;;;5056004;28;20285;-76
2022/03/25 05:37:38;;;;;;;7.25;6.43;;;7.90;84.80;;;;;;5066356;28;20293;-75
2022/03/25 05:40:07;;;;;;;6.53;5.90;;;7.90;85.00;;;;;;5063811;28;20233;-75
2022/03/25 05:42:34;;;;;;;6.03;5.45;;;7.90;85.10;;;;;;5061669;28;20283;-75
2022/03/25 05:45:01;;;;;;;6.43;5.82;;;7.90;85.50;;;;;;5062615;28;20206;-74
2022/03/25 05:47:30;;;;;;;6.03;5.50;;;7.90;85.10;;;;;;5060199;28;20209;-75
2022/03/25 05:49:57;;;;;;;6.60;5.88;;;7.90;85.20;;;;;;5065182;28;20243;-75
2022/03/25 05:52:24;;;;;;;6.88;6.18;;;8.00;85.10;;;;;;5064074;28;22042;-74
2022/03/25 05:54:51;;;;;;;9.98;6.30;;;8.10;84.80;;;;;;5063591;28;20194;-75
2022/03/25 05:57:18;;;;;;;6.32;5.65;;;8.30;84.70;;;;;;5073513;22;20218;-75
2022/03/25 05:59:46;;;;;;;6.15;5.55;;;8.70;84.70;;;;;;5043718;28;20260;-78
2022/03/25 06:02:14;;;;;;;6.07;5.47;;;9.10;84.30;;;;;;5037366;28;20252;-77
2022/03/25 06:04:42;;;;;;;6.18;5.57;;;9.50;84.00;;;;;;5041785;28;20286;-75
2022/03/25 06:07:11;;;;;;;5.22;4.72;;;9.90;83.60;;;;;;5043850;28;20552;-75
2022/03/25 06:09:38;;;;;;;7.00;5.57;;;10.30;82.70;;;;;;5041011;28;20691;-75
2022/03/25 06:12:06;;;;;;;6.05;5.55;;;10.60;81.80;;;;;;5044835;28;20218;-76
2022/03/25 06:14:34;;;;;;;5.70;5.10;;;11.00;81.20;;;;;;5048203;28;20599;-76
2022/03/25 06:17:01;;;;;;;7.35;5.57;;;11.30;80.00;;;;;;5039335;28;20220;-75
2022/03/25 06:19:29;;;;;;;5.30;4.80;;;11.40;79.40;;;;;;5036601;28;20219;-74
2022/03/25 06:21:58;;;;;;;5.20;4.80;;;11.50;79.20;;;;;;5036705;28;20195;-76
2022/03/25 06:24:25;;;;;;;5.43;4.93;;;11.80;79.00;;;;;;5040563;28;20216;-75
2022/03/25 06:26:52;;;;;;;5.82;5.32;;;12.20;78.40;;;;;;5036757;28;20284;-78
2022/03/25 06:29:20;;;;;;;6.22;4.97;;;12.50;77.60;;;;;;5037768;28;20248;-74
2022/03/25 06:31:47;;;;;;;6.90;4.80;;;12.60;77.70;;;;;;5033750;28;20658;-77
2022/03/25 06:34:20;;;;;;;6.10;5.05;;;12.70;77.30;;;;;;5034136;28;20228;-76
2022/03/25 06:36:48;;;;;;;8.20;5.38;;;12.60;77.40;;;;;;5038620;28;20277;-79
2022/03/25 06:39:17;;;;;;;6.50;5.90;;;12.80;77.50;;;;;;5034591;28;20657;-75
2022/03/25 06:41:44;;;;;;;6.97;6.28;;;12.90;77.40;;;;;;5042499;28;20253;-76
2022/03/25 06:44:11;;;;;;;6.32;5.72;;;13.10;77.70;;;;;;5054355;28;20226;-74
2022/03/25 06:46:38;;;;;;;6.22;5.63;;;13.40;77.60;;;;;;5035252;28;20215;-74
2022/03/25 06:49:06;;;;;;;6.43;5.75;;;13.40;77.50;;;;;;5041211;28;20214;-75
2022/03/25 06:51:34;;;;;;;6.63;5.60;;;13.50;77.60;;;;;;5040622;28;20199;-75
2022/03/25 06:54:01;;;;;;;9.00;6.03;;;13.80;77.20;;;;;;5039985;28;20272;-74
2022/03/25 06:56:33;;;;;;;6.68;5.97;;;14.00;76.30;;;;;;5037527;28;20737;-74
2022/03/25 06:59:01;;;;;;;15.98;6.03;;;14.30;76.20;;;;;;5041887;28;20234;-74
2022/03/25 07:01:31;;;;;;;7.63;6.13;;;14.50;74.80;;;;;;5038282;28;20255;-75
2022/03/25 07:03:59;;;;;;;7.88;5.90;;;14.50;74.40;;;;;;5042197;28;20235;-75
2022/03/25 07:06:26;;;;;;;8.63;6.15;;;14.60;73.80;;;;;;5033899;28;20204;-74
2022/03/25 07:08:57;;;;;;;6.95;6.18;;;14.50;74.90;;;;;;5040855;28;20219;-73
2022/03/25 07:11:25;;;;;;;7.28;6.00;;;14.60;74.50;;;;;;5043634;28;20339;-74
2022/03/25 07:13:54;;;;;;;7.50;6.80;;;14.70;74.00;;;;;;5042941;28;20230;-75
2022/03/25 07:16:21;;;;;;;7.13;6.43;;;14.80;73.70;;;;;;5039256;28;20187;-74
2022/03/25 07:18:48;;;;;;;7.47;6.70;;;14.90;73.50;;;;;;5037472;28;20223;-74
2022/03/25 07:21:16;;;;;;;7.60;6.80;;;15.10;73.50;;;;;;5037278;28;20191;-74
2022/03/25 07:23:43;;;;;;;6.80;6.10;;;15.10;73.10;;;;;;5043402;28;20305;-74
2022/03/25 07:26:10;;;;;;;7.90;6.07;;;15.20;73.50;;;;;;5041193;28;20214;-75
2022/03/25 07:28:38;;;;;;;6.85;6.03;;;15.20;72.60;;;;;;5041080;28;20274;-77
2022/03/25 07:31:06;;;;;;;7.22;6.53;;;15.10;72.50;;;;;;5039512;28;20192;-74
2022/03/25 07:33:34;;;;;;;15.38;7.30;;;15.10;72.70;;;;;;5044049;28;20494;-77
2022/03/25 07:36:01;;;;;;;9.23;6.50;;;15.20;75.30;;;;;;5053467;28;20328;-77
2022/03/25 07:38:29;;;;;;;8.18;6.28;;;15.20;72.20;;;;;;5045071;28;20313;-76
2022/03/25 07:40:56;;;;;;;8.68;7.05;;;15.40;75.70;;;;;;5040190;28;20195;-76
2022/03/25 07:43:24;;;;;;;7.18;6.28;;;15.50;73.00;;;;;;5041707;28;20230;-78
2022/03/25 07:45:51;;;;;;;8.10;7.00;;;15.50;72.90;;;;;;5040084;28;20285;-75
2022/03/25 07:48:19;;;;;;;9.68;6.43;;;15.40;73.20;;;;;;5041655;28;20229;-78
2022/03/25 07:50:46;;;;;;;8.57;7.00;;;15.40;73.40;;;;;;5041913;28;20291;-75
2022/03/25 07:53:14;;;;;;;9.70;6.72;;;15.60;73.30;;;;;;5039361;28;20222;-76
2022/03/25 07:55:43;;;;;;;7.88;7.07;;;16.00;73.10;;;;;;5042251;28;20704;-75
2022/03/25 07:58:11;;;;;;;7.55;6.43;;;16.20;72.40;;;;;;5041930;28;20225;-77
2022/03/25 08:00:39;;;;;;;8.02;7.22;;;16.30;72.10;;;;;;5045296;28;20191;-76
2022/03/25 08:03:07;;;;;;;9.20;6.70;;;16.30;72.40;;;;;;5045673;28;20250;-73
2022/03/25 08:05:35;;;;;;;7.53;6.32;;;16.40;72.40;;;;;;5042261;28;20605;-75
2022/03/25 08:08:03;;;;;;;9.52;6.88;;;16.50;72.40;;;;;;5043095;28;20504;-77
2022/03/25 08:10:31;;;;;;;7.18;6.35;;;16.60;73.20;;;;;;5046579;28;20199;-76
2022/03/25 08:12:58;;;;;;;9.30;6.78;;;16.70;72.90;;;;;;5045070;28;20313;-74
2022/03/25 08:15:27;;;;;;;8.32;7.47;;;16.90;72.90;;;;;;5042341;28;20579;-75
2022/03/25 08:17:57;;;;;;;10.48;7.25;;;17.00;73.30;;;;;;5040928;28;20235;-75
2022/03/25 08:20:28;;;;;;;8.10;7.03;;;16.90;73.50;;;;;;5042735;28;20210;-75
2022/03/25 08:22:59;;;;;;;7.40;6.60;;;17.00;73.00;;;;;;5041874;28;20231;-76
2022/03/25 08:28:12;;;;;;;8.88;7.82;;;17.00;72.80;;;;;;5048353;28;20233;-79
2022/03/25 08:30:39;;;;;;;8.45;7.55;;;17.20;72.90;;;;;;5050848;28;20289;-75
2022/03/25 08:33:06;;;;;;;7.78;6.97;;;17.10;73.40;;;;;;5043522;28;20229;-76
2022/03/25 08:35:34;;;;;;;8.75;7.30;;;17.10;73.00;;;;;;5038841;28;20345;-75
2022/03/25 08:38:02;;;;;;;8.23;6.93;;;17.50;73.20;;;;;;5037806;28;20314;-76
2022/03/25 08:40:32;;;;;;;7.75;7.05;;;17.80;72.10;;;;;;5034245;28;20200;-76
2022/03/25 08:43:01;;;;;;;8.95;7.25;;;18.00;71.50;;;;;;5038561;28;20258;-78
2022/03/25 08:45:28;;;;;;;8.25;7.43;;;18.10;70.80;;;;;;5037965;28;20198;-74
2022/03/25 08:47:56;;;;;;;9.15;6.55;;;18.00;70.90;;;;;;5039893;28;20234;-76
2022/03/25 08:50:23;;;;;;;7.90;7.10;;;17.90;71.70;;;;;;5038112;28;20199;-77
2022/03/25 08:52:51;;;;;;;8.27;7.20;;;17.90;71.70;;;;;;5039676;28;20195;-76
2022/03/25 08:55:21;;;;;;;7.90;7.10;;;17.80;70.80;;;;;;5042573;28;20195;-75
2022/03/25 08:57:49;;;;;;;8.20;7.28;;;17.90;71.30;;;;;;5035784;28;20234;-74
2022/03/25 09:00:18;;;;;;;8.95;7.63;;;18.10;71.50;;;;;;5039322;28;20195;-76
2022/03/25 09:02:46;;;;;;;8.90;7.22;;;18.10;70.80;;;;;;5038374;28;20208;-77
2022/03/25 09:05:14;;;;;;;9.20;7.45;;;18.20;70.60;;;;;;5035106;28;20560;-76
2022/03/25 09:07:41;;;;;;;9.57;7.53;;;18.20;71.00;;;;;;5040827;28;20215;-76
2022/03/25 09:10:10;;;;;;;9.68;7.53;;;18.50;71.50;;;;;;5036425;28;20460;-78
2022/03/25 09:12:39;;;;;;;10.20;7.65;;;18.60;70.20;;;;;;5038596;28;20621;-76
2022/03/25 09:15:08;;;;;;;8.07;7.28;;;18.50;69.40;;;;;;5034935;28;20512;-79
2022/03/25 09:17:35;;;;;;;10.07;7.30;;;18.80;69.50;;;;;;5040488;28;20218;-77
2022/03/25 09:20:03;;;;;;;7.53;6.72;;;18.80;69.00;;;;;;5039410;28;20227;-75
2022/03/25 09:22:31;;;;;;;11.77;8.05;;;18.70;68.60;;;;;;5053509;28;20282;-76
2022/03/25 09:24:58;;;;;;;8.75;7.22;;;18.80;68.90;;;;;;5037774;28;20528;-76
2022/03/25 09:27:25;;;;;;;8.30;7.13;;;18.70;69.30;;;;;;5037999;28;20214;-76
2022/03/25 09:29:54;;;;;;;7.88;7.07;;;18.80;69.10;;;;;;5039517;28;20214;-77
2022/03/25 09:32:21;;;;;;;8.45;7.63;;;18.80;68.60;;;;;;5038361;28;20613;-76
2022/03/25 09:37:34;;;;;;;8.90;7.60;;;18.80;68.70;;;;;;5039255;28;20232;-78
2022/03/25 09:40:02;;;;;;;12.48;7.15;;;18.90;67.90;;;;;;5038553;28;20230;-79
2022/03/25 09:42:29;;;;;;;8.88;7.93;;;18.80;67.40;;;;;;5039762;28;20222;-76
2022/03/25 09:44:58;;;;;;;6.63;6.03;;;18.90;67.90;;;;;;5041133;28;20721;-76
2022/03/25 09:47:25;;;;;;;7.68;6.88;;;19.00;66.30;;;;;;5039020;28;20214;-77
2022/03/25 09:49:53;;;;;;;8.85;7.03;;;19.30;64.80;;;;;;5037118;28;20544;-76
2022/03/25 09:52:20;;;;;;;7.78;6.70;;;19.30;65.40;;;;;;5040042;28;20210;-78
2022/03/25 09:54:47;;;;;;;8.63;6.90;;;19.50;65.90;;;;;;5038891;28;20226;-78
2022/03/25 09:57:14;;;;;;;7.57;6.75;;;19.30;65.10;;;;;;5039501;28;20759;-77
2022/03/25 09:59:41;;;;;;;7.57;6.78;;;19.50;67.10;;;;;;5041465;28;20229;-76
2022/03/25 10:02:09;;;;;;;10.68;7.35;;;19.50;65.00;;;;;;5038512;28;20191;-75
2022/03/25 10:04:41;;;;;;;8.18;6.75;;;19.70;64.30;;;;;;5038378;28;20788;-75
2022/03/25 10:07:19;;;;;;;7.53;6.72;;;19.30;64.20;;;;;;5034094;28;20234;-76
2022/03/25 10:09:47;;;;;;;11.95;7.78;;;19.20;65.30;;;;;;5038104;28;20224;-75
2022/03/25 10:12:23;;;;;;;8.07;7.05;;;19.10;65.00;;;;;;5033857;28;20191;-75
2022/03/25 10:14:51;;;;;;;8.35;7.28;;;19.20;64.60;;;;;;5041578;28;20273;-76
2022/03/25 10:17:19;;;;;;;11.75;7.30;;;19.10;65.20;;;;;;5043185;28;20778;-75
2022/03/25 10:19:52;;;;;;;7.38;6.68;;;19.30;65.50;;;;;;5040459;28;20311;-77
2022/03/25 10:22:20;;;;;;;8.45;7.55;;;19.40;65.20;;;;;;5041541;28;20195;-75
2022/03/25 10:24:52;;;;;;;8.48;7.20;;;19.70;64.60;;;;;;5035342;28;20211;-75
2022/03/25 10:27:23;;;;;;;7.45;6.75;;;19.90;64.20;;;;;;5039301;28;20733;-76
2022/03/25 10:29:54;;;;;;;8.80;7.13;;;20.50;64.40;;;;;;5041511;28;20307;-75
2022/03/25 10:32:25;;;;;;;9.25;6.95;;;20.70;63.10;;;;;;5044456;28;20616;-75
2022/03/25 10:35:08;;;;;;;8.63;7.22;;;20.90;62.00;;;;;;5040444;28;20434;-75
2022/03/25 10:37:36;;;;;;;8.02;6.90;;;20.70;61.20;;;;;;5038613;28;20215;-76
2022/03/25 10:40:05;;;;;;;7.50;6.57;;;20.70;62.00;;;;;;5041196;28;20254;-76
2022/03/25 10:42:33;;;;;;;8.05;7.28;;;20.60;61.80;;;;;;5039445;28;20664;-77
2022/03/25 10:45:01;;;;;;;12.77;7.18;;;20.90;62.40;;;;;;5041704;28;20272;-74
2022/03/25 10:47:31;;;;;;;10.02;6.72;;;20.60;61.60;;;;;;5040047;28;20208;-76
2022/03/25 10:50:13;;;;;;;8.07;6.38;;;20.60;61.90;;;;;;5041502;28;20252;-74
2022/03/25 10:52:41;;;;;;;6.35;5.75;;;20.80;61.20;;;;;;5043498;28;20207;-75
2022/03/25 10:55:17;;;;;;;7.03;6.32;;;20.70;60.80;;;;;;5044172;28;20225;-76
2022/03/25 10:57:55;;;;;;;8.32;7.05;;;20.70;60.80;;;;;;5040170;28;20754;-75
2022/03/25 11:00:24;;;;;;;7.70;6.93;;;20.90;62.00;;;;;;5041395;28;20227;-76
2022/03/25 11:02:53;;;;;;;7.90;6.63;;;21.00;60.70;;;;;;5043419;28;20214;-76
2022/03/25 11:05:20;;;;;;;9.35;7.03;;;21.30;60.90;;;;;;5041224;28;20610;-76
2022/03/25 11:07:48;;;;;;;8.80;6.82;;;21.50;59.50;;;;;;5048557;28;20195;-76
2022/03/25 11:10:17;;;;;;;7.03;6.03;;;21.40;59.10;;;;;;5051151;28;20214;-73
2022/03/25 11:12:46;;;;;;;6.63;6.03;;;21.50;59.40;;;;;;5042935;28;20213;-77
2022/03/25 11:15:13;;;;;;;9.68;6.13;;;21.60;59.30;;;;;;5041060;28;20594;-75
2022/03/25 11:17:43;;;;;;;7.65;6.72;;;21.80;59.80;;;;;;5041674;28;20759;-76
2022/03/25 11:20:14;;;;;;;7.15;6.45;;;21.70;59.20;;;;;;5040862;28;20226;-77
2022/03/25 11:22:47;;;;;;;8.20;6.07;;;21.50;59.60;;;;;;5039158;28;20427;-75
2022/03/25 11:25:16;;;;;;;7.25;6.03;;;21.40;60.00;;;;;;5037748;28;20717;-75
2022/03/25 11:27:50;;;;;;;7.18;6.45;;;21.70;59.70;;;;;;5042231;28;20288;-75
2022/03/25 11:30:18;;;;;;;6.72;6.10;;;21.70;58.50;;;;;;5041572;28;20827;-76
2022/03/25 11:33:04;;;;;;;6.72;6.03;;;21.90;58.80;;;;;;5046557;28;20191;-76
2022/03/25 11:35:34;;;;;;;10.57;7.45;;;21.80;58.10;;;;;;5037686;28;20803;-76
2022/03/25 11:38:19;;;;;;;7.47;6.63;;;21.80;58.40;;;;;;5043791;28;20219;-75
2022/03/25 11:40:48;;;;;;;6.60;5.90;;;21.80;58.40;;;;;;5038144;28;20305;-77
2022/03/25 11:43:17;;;;;;;7.57;6.10;;;22.10;59.20;;;;;;5041357;28;20199;-76
2022/03/25 11:45:45;;;;;;;7.68;6.00;;;22.10;58.20;;;;;;5040294;28;20219;-76
2022/03/25 11:48:38;;;;;;;7.32;6.63;;;21.80;56.90;;;;;;5038854;28;20672;-75
2022/03/25 11:51:29;;;;;;;6.22;5.63;;;21.80;57.60;;;;;;5043503;28;20554;-76
2022/03/25 11:53:56;;;;;;;6.10;5.50;;;21.90;57.90;;;;;;5048758;28;20198;-73
2022/03/25 11:56:24;;;;;;;6.55;5.72;;;21.90;58.30;;;;;;5041665;28;20490;-75
2022/03/25 11:59:00;;;;;;;5.78;5.28;;;22.00;57.60;;;;;;5067023;22;20274;-73
2022/03/25 12:01:29;;;;;;;6.18;5.30;;;22.10;56.80;;;;;;5047955;28;20278;-74
2022/03/25 12:03:57;;;;;;;6.45;5.85;;;22.00;57.00;;;;;;5048310;28;20219;-74
2022/03/25 12:06:26;;;;;;;6.63;5.47;;;22.10;56.80;;;;;;5048009;28;20196;-75
2022/03/25 12:08:59;;;;;;;6.60;6.00;;;21.90;58.30;;;;;;5049054;28;20760;-73
2022/03/25 12:11:54;;;;;;;8.38;5.60;;;22.00;57.10;;;;;;5039509;28;20204;-75
2022/03/25 12:14:21;;;;;;;5.65;5.05;;;21.90;55.70;;;;;;5000205;28;20226;-73
2022/03/25 12:16:55;;;;;;;6.40;5.45;;;21.90;56.80;;;;;;5054998;28;20222;-74
2022/03/25 12:19:53;;;;;;;5.30;4.80;;;22.00;56.20;;;;;;5053093;28;20232;-76
2022/03/25 12:22:36;;;;;;;5.63;5.03;;;22.10;56.40;;;;;;5042537;28;20203;-73
2022/03/25 12:25:20;;;;;;;6.55;5.10;;;22.00;56.70;;;;;;5044476;28;20298;-75
2022/03/25 12:27:47;;;;;;;5.53;4.88;;;22.10;57.20;;;;;;5048763;28;20216;-74
2022/03/25 12:30:14;;;;;;;5.55;5.05;;;22.20;56.90;;;;;;5046382;28;20214;-74
2022/03/25 12:32:42;;;;;;;6.13;5.22;;;22.10;56.70;;;;;;5051034;28;20268;-73
2022/03/25 12:35:11;;;;;;;6.68;6.00;;;22.10;56.30;;;;;;5041702;28;20218;-73
2022/03/25 12:37:54;;;;;;;6.07;5.47;;;22.00;56.40;;;;;;5045730;28;20223;-73
2022/03/25 12:40:24;;;;;;;7.47;6.30;;;22.10;56.40;;;;;;5041725;28;20223;-74
2022/03/25 12:42:53;;;;;;;7.30;6.53;;;22.30;57.50;;;;;;5045969;28;20202;-75
2022/03/25 12:45:27;;;;;;;6.97;6.35;;;22.30;57.10;;;;;;5046530;28;20215;-74
2022/03/25 12:47:55;;;;;;;6.32;5.75;;;22.20;57.30;;;;;;5043898;28;20301;-74
2022/03/25 12:50:23;;;;;;;7.15;5.78;;;22.30;57.00;;;;;;5046356;28;20219;-74
2022/03/25 12:52:58;;;;;;;7.15;6.20;;;22.20;56.90;;;;;;5046352;28;20198;-74
2022/03/25 12:55:28;;;;;;;7.13;6.43;;;22.20;57.50;;;;;;5051282;28;20308;-71
2022/03/25 12:58:03;;;;;;;8.00;7.20;;;22.10;57.20;;;;;;5048485;28;21011;-74
2022/03/25 13:00:35;;;;;;;8.88;7.03;;;22.10;56.70;;;;;;5048010;28;20731;-74
2022/03/25 13:03:02;;;;;;;7.72;7.03;;;22.10;57.10;;;;;;5045052;28;20195;-72